• Join FlightAware (Why Join?)
  • Login
  • US Flag 
06:23PM EDT


 

Airport Tracker/Info


-or-


 

Live Flight TrackerFlight Track Log ✈ SWA868 ✈ 23-Apr-2013 ✈ KBWI - KBNA

Flight Track Log - Related Links

Times and Time Zones

All times are in EDT time to prevent confusion due to time zone crossing. See the SWA868 flight status page for this flight to view local times or setup timezone preferences in your user account.

Time Position Orientation Groundspeed Altitude Reporting Facility
EDT Latitude Longitude Course Direction KTS MPH feet Rate Location/Type
04:23PM 39.1833 -76.7333 211° Southwest 178 205 2,400  Level Potomac TRACON
04:24PM 39.1833 -76.8167 270° West 231 266 5,100 8,220 Climbing Potomac TRACON
04:26PM 39.2000 -76.9873 270° West  Level FlightAware Approximate
04:27PM 39.1822 -77.1847 270° West 318 366 40,000  Level Washington Center
04:28PM 39.1189 -77.2169 211° Southwest  Level FlightAware Approximate
04:28PM 39.0956 -77.2658 216° Southwest 329 379 18,700  Level Washington Center
04:29PM 39.0583 -77.3961 250° West 369 425 21,500 2,640 Climbing Washington Center
04:30PM 39.0269 -77.5289 253° West 376 433 24,000 1,680 Climbing Washington Center
04:31PM 38.9936 -77.6589 252° West 413 475 24,900 1,560 Climbing Washington Center
04:32PM 38.9531 -77.8258 253° West 443 510 27,200 2,160 Climbing Washington Center
04:33PM 38.9194 -77.9556 252° West 436 502 29,300 2,280 Climbing Washington Center
04:34PM 38.8811 -78.0983 251° West 436 502 31,800 1,320 Climbing Washington Center
04:35PM 38.8531 -78.2361 255° West 418 481 32,000 60 Climbing Washington Center
04:36PM 38.8522 -78.3667 270° West 397 457 32,000 420 Level Washington Center
04:37PM 38.8511 -78.5053 269° West 386 444 32,900 480 Climbing Washington Center
04:38PM 38.8497 -78.6383 269° West 380 437 33,000 1,020 Climbing Washington Center
04:39PM 38.8483 -78.7717 269° West 380 437 35,000 1,500 Climbing Washington Center
04:40PM 38.8261 -78.9039 258° West 380 437 36,100 900 Climbing Washington Center
04:41PM 38.8056 -79.0414 259° West 390 449 36,800 720 Climbing Washington Center
04:42PM 38.7847 -79.1817 259° West 395 455 37,600 720 Climbing Washington Center
04:43PM 38.7636 -79.3325 260° West 413 475 38,300 660 Climbing Washington Center
04:44PM 38.7400 -79.4803 258° West 426 490 39,000 840 Climbing Washington Center
04:45PM 38.7139 -79.6439 258° West 431 496 40,000 480 Climbing Washington Center
04:46PM 38.6900 -79.7917 258° West 431 496 40,000  Level Washington Center
04:47PM 38.6636 -79.9417 257° West 431 496 40,000  Level Washington Center
04:49PM 38.6211 -80.1942 258° West 426 490 40,000  Level Indianapolis Center
04:50PM 38.5978 -80.3308 258° West 423 487 40,000  Level Indianapolis Center
04:51PM 38.5722 -80.4867 258° West 420 483 40,000  Level Indianapolis Center
04:52PM 38.5475 -80.6333 258° West 419 482 40,000  Level Indianapolis Center
04:53PM 38.5233 -80.7789 258° West 419 482 40,000 -240 Level Indianapolis Center
04:54PM 38.4983 -80.9253 258° West 420 483 39,600 -660 Descending Indianapolis Center
04:56PM 38.4469 -81.2244 258° West 378 435 38,000 -540 Descending Indianapolis Center
04:57PM 38.4225 -81.3569 257° West 380 437 38,000  Level Indianapolis Center
04:58PM 38.3994 -81.4908 258° West 382 440 38,000  Level Indianapolis Center
04:59PM 38.3764 -81.6239 258° West 381 438 38,000  Level Indianapolis Center
05:00PM 38.3519 -81.7564 257° West 380 437 38,000  Level Indianapolis Center
05:01PM 38.3169 -81.8861 251° West 387 445 38,000  Level Indianapolis Center
05:02PM 38.2803 -82.0161 250° West 389 448 38,000  Level Indianapolis Center
05:03PM 38.2447 -82.1442 251° West 384 442 38,000  Level Indianapolis Center
05:04PM 38.2017 -82.2994 251° West 387 445 38,000  Level Indianapolis Center
05:05PM 38.1647 -82.4275 250° West 385 443 38,000  Level Indianapolis Center
05:06PM 38.1297 -82.5494 250° West 382 440 38,000  Level Indianapolis Center
05:07PM 38.0922 -82.6775 250° West 384 442 38,000  Level Indianapolis Center
05:08PM 38.0489 -82.8278 250° West 386 444 38,000  Level Indianapolis Center
05:10PM 38.0125 -82.9550 250° West 385 443 38,000  Level Indianapolis Center
05:11PM 37.9753 -83.0836 250° West 387 445 38,000 -300 Level Indianapolis Center
05:12PM 37.9103 -83.1944 233° Southwest 400 460 37,400 -540 Descending Indianapolis Center
05:13PM 37.8378 -83.3000 229° Southwest 399 459 37,000 -540 Descending Indianapolis Center
05:14PM 37.7539 -83.4236 229° Southwest 397 457 36,400 -780 Descending Indianapolis Center
05:15PM 37.6906 -83.5328 234° Southwest 383 441 35,400 -960 Descending Indianapolis Center
05:16PM 37.6375 -83.6494 240° Southwest 384 442 34,500 -720 Descending Indianapolis Center
05:17PM 37.5778 -83.7636 237° Southwest 387 445 34,000 -300 Descending Indianapolis Center
05:18PM 37.5206 -83.8786 238° Southwest 388 447 34,000 -60 Level Indianapolis Center
05:19PM 37.4525 -84.0117 237° Southwest 388 447 33,900 -540 Descending Indianapolis Center
05:20PM 37.3933 -84.1253 237° Southwest 389 448 33,000 -480 Descending Indianapolis Center
05:21PM 37.3358 -84.2389 238° Southwest 387 445 33,000  Level Indianapolis Center
05:22PM 37.2761 -84.3531 237° Southwest 392 451 33,000  Level Indianapolis Center
05:23PM 37.2169 -84.4672 237° Southwest 389 448 33,000  Level Indianapolis Center
05:24PM 37.1478 -84.6008 237° Southwest 392 451 33,000  Level Indianapolis Center
05:25PM 37.0881 -84.7158 237° Southwest 393 452 33,000 -240 Level Indianapolis Center
05:26PM 37.0322 -84.8231 237° Southwest 393 452 32,600 -1,140 Descending Indianapolis Center
05:27PM 36.9731 -84.9347 236° Southwest 387 445 30,700 -2,100 Descending Indianapolis Center
05:28PM 36.9089 -85.0639 238° Southwest 371 427 28,300 -2,100 Descending Indianapolis Center
05:29PM 36.8583 -85.1708 239° Southwest 362 417 26,400 -1,920 Descending Indianapolis Center
05:30PM 36.8097 -85.2733 239° Southwest 349 402 24,400 -1,860 Descending Indianapolis Center
05:31PM 36.7631 -85.3753 240° Southwest 342 394 22,600 -1,740 Descending Indianapolis Center
05:31PM 36.7494 -85.4008 236° Southwest 356 410 22,200 -1,980 Descending Memphis Center
05:32PM 36.7075 -85.4967 241° Southwest 343 395 20,100 -1,920 Descending Memphis Center
05:33PM 36.6569 -85.5953 237° Southwest 338 389 18,400 -1,740 Descending Memphis Center
05:34PM 36.6147 -85.6883 241° Southwest 326 375 16,700 -1,740 Descending Memphis Center
05:35PM 36.5703 -85.7811 239° Southwest 326 375 15,000 -1,800 Descending Memphis Center
05:36PM 36.5258 -85.8767 240° Southwest 314 361 13,200 -1,680 Descending Memphis Center
05:37PM 36.4850 -85.9617 239° Southwest 300 345 11,700 -1,320 Descending Memphis Center
05:38PM 36.4544 -86.0406 244° Southwest 278 320 10,600 -1,140 Descending Memphis Center
05:39PM 36.4217 -86.1172 242° Southwest 259 298 9,500 -1,080 Descending Memphis Center
05:40PM 36.3886 -86.1883 240° Southwest 248 285 8,500 -1,020 Descending Memphis Center
05:41PM 36.3597 -86.2622 244° Southwest 248 285 7,500 -1,200 Descending Memphis Center
05:42PM 36.3289 -86.3333 242° Southwest 248 285 6,200 -1,200 Descending Memphis Center
05:43PM 36.2978 -86.4069 242° Southwest 248 285 5,100 -840 Descending Memphis Center
05:44PM 36.2706 -86.4672 241° Southwest 242 278 4,600 -660 Descending Memphis Center
05:45PM 36.2456 -86.5303 244° Southwest 226 260 3,800 -960 Descending Memphis Center
05:46PM 36.2183 -86.5958 243° Southwest 215 247 2,700 -1,080 Descending Memphis Center
05:47PM 36.1883 -86.6383 229° Southwest 186 214 1,700 -900 Descending Memphis Center
05:48PM 36.1533 -86.6531 199° South 141 162 1,000 -720 Descending Memphis Center
05:51PM 36.1167 -86.6667 287° West  Level FlightAware Approximate